createdAt,value
2022-12-10T00:01:17.158Z,4.43
2022-12-10T00:03:45.239Z,4.42
2022-12-10T00:06:17.274Z,4.48
2022-12-10T00:08:44.344Z,4.45
2022-12-10T00:11:13.700Z,4.49
2022-12-10T00:13:40.948Z,4.51
2022-12-10T00:16:09.698Z,4.46
2022-12-10T00:18:36.984Z,4.44
2022-12-10T00:21:08.783Z,4.39
2022-12-10T00:23:35.788Z,4.42
2022-12-10T00:26:24.679Z,4.35
2022-12-10T00:28:52.724Z,4.37
2022-12-10T00:31:28.082Z,4.43
2022-12-10T00:33:59.239Z,4.39
2022-12-10T00:36:31.326Z,4.43
2022-12-10T00:38:57.840Z,4.45
2022-12-10T00:41:24.455Z,4.38
2022-12-10T00:43:51.690Z,4.42
2022-12-10T00:46:19.567Z,4.41
2022-12-10T00:48:46.543Z,4.43
2022-12-10T00:51:17.547Z,4.49
2022-12-10T00:53:45.375Z,4.45
2022-12-10T00:56:13.702Z,4.43
2022-12-10T00:58:40.771Z,4.50
2022-12-10T01:01:28.938Z,4.52
2022-12-10T01:03:58.554Z,4.48
2022-12-10T01:06:31.185Z,4.56
2022-12-10T01:09:00.882Z,4.51
2022-12-10T01:11:32.649Z,4.48
2022-12-10T01:13:59.461Z,4.43
2022-12-10T01:16:27.143Z,4.47
2022-12-10T01:18:55.641Z,4.48
2022-12-10T01:21:23.067Z,4.49
2022-12-10T01:23:50.990Z,4.49
2022-12-10T01:26:20.553Z,4.53
2022-12-10T01:28:47.903Z,4.55
2022-12-10T01:31:20.168Z,4.54
2022-12-10T01:33:47.553Z,4.58
2022-12-10T01:36:17.122Z,4.55
2022-12-10T01:38:44.119Z,4.44
2022-12-10T01:41:21.464Z,4.47
2022-12-10T01:43:55.392Z,4.54
2022-12-10T01:46:24.104Z,4.57
2022-12-10T01:48:51.256Z,4.56
2022-12-10T01:51:18.319Z,4.59
2022-12-10T01:53:46.268Z,4.58
2022-12-10T01:56:13.653Z,4.50
2022-12-10T01:58:40.336Z,4.55
2022-12-10T02:01:22.051Z,4.55
2022-12-10T02:04:21.383Z,4.51
2022-12-10T02:07:14.373Z,4.49
2022-12-10T02:10:09.275Z,4.51
2022-12-10T02:12:43.060Z,4.52
2022-12-10T02:15:16.575Z,4.56
2022-12-10T02:18:08.684Z,4.57
2022-12-10T02:20:46.107Z,4.64
2022-12-10T02:23:22.891Z,4.61
2022-12-10T02:26:00.255Z,4.61
2022-12-10T02:28:50.855Z,4.63
2022-12-10T02:31:22.535Z,4.55
2022-12-10T02:33:52.394Z,4.55
2022-12-10T02:36:22.622Z,4.63
2022-12-10T02:38:51.749Z,4.71
2022-12-10T02:41:27.228Z,4.61
2022-12-10T02:43:56.849Z,4.49
2022-12-10T02:46:25.433Z,4.42
2022-12-10T02:48:53.277Z,4.44
2022-12-10T02:51:19.711Z,4.43
2022-12-10T02:53:47.011Z,4.39
2022-12-10T02:56:51.842Z,4.45
2022-12-10T02:59:58.324Z,4.53
2022-12-10T03:02:38.317Z,4.47
2022-12-10T03:05:16.098Z,4.49
2022-12-10T03:07:51.258Z,4.49
2022-12-10T03:10:39.509Z,4.46
2022-12-10T03:13:10.655Z,4.47
2022-12-10T03:15:41.724Z,4.50
2022-12-10T03:18:10.828Z,4.44
2022-12-10T03:20:45.514Z,4.44
2022-12-10T03:23:16.231Z,4.51
2022-12-10T03:25:43.165Z,4.51
2022-12-10T03:28:10.381Z,4.52
2022-12-10T03:30:38.841Z,4.52
2022-12-10T03:33:06.220Z,4.51
2022-12-10T03:35:33.501Z,4.48
2022-12-10T03:38:00.173Z,4.53
2022-12-10T03:40:27.298Z,4.51
2022-12-10T03:42:53.723Z,4.52
2022-12-10T03:45:20.494Z,4.55
2022-12-10T03:47:47.195Z,4.53
2022-12-10T03:50:13.713Z,4.49
2022-12-10T03:52:40.174Z,4.49
2022-12-10T03:55:07.750Z,4.51
2022-12-10T03:57:34.981Z,4.52
2022-12-10T04:00:01.783Z,4.49
2022-12-10T04:02:28.321Z,4.43
2022-12-10T04:04:54.765Z,4.42
2022-12-10T04:07:21.317Z,4.40
2022-12-10T04:09:47.875Z,4.36
2022-12-10T04:12:14.306Z,4.40
2022-12-10T04:14:59.350Z,4.37
2022-12-10T04:17:25.797Z,4.37
2022-12-10T04:19:52.205Z,4.31
2022-12-10T04:22:37.284Z,4.38
2022-12-10T04:25:22.554Z,4.43
2022-12-10T04:27:49.206Z,4.45
2022-12-10T04:30:16.063Z,4.41
2022-12-10T04:32:42.494Z,4.43
2022-12-10T04:35:09.662Z,4.37
2022-12-10T04:37:36.626Z,4.42
2022-12-10T04:40:04.046Z,4.46
2022-12-10T04:42:30.577Z,4.48
2022-12-10T04:44:57.036Z,4.52
2022-12-10T04:47:23.895Z,4.51
2022-12-10T04:49:50.371Z,4.42
2022-12-10T04:52:17.405Z,4.43
2022-12-10T04:54:44.996Z,4.42
2022-12-10T04:57:12.099Z,4.49
2022-12-10T04:59:38.772Z,4.53
2022-12-10T05:02:06.608Z,4.50
2022-12-10T05:04:33.063Z,4.48
2022-12-10T05:06:59.707Z,4.49
2022-12-10T05:09:26.271Z,4.49
2022-12-10T05:11:52.695Z,4.52
2022-12-10T05:14:19.150Z,4.55
2022-12-10T05:16:45.619Z,4.61
2022-12-10T05:19:12.651Z,4.52
2022-12-10T05:22:14.408Z,4.50
2022-12-10T05:24:41.000Z,4.44
2022-12-10T05:27:07.484Z,4.51
2022-12-10T05:29:34.010Z,4.49
2022-12-10T05:32:00.759Z,4.50
2022-12-10T05:34:27.228Z,4.55
2022-12-10T05:36:53.642Z,4.54
2022-12-10T05:39:20.039Z,4.44
2022-12-10T05:41:46.637Z,4.37
2022-12-10T05:44:13.245Z,4.35
2022-12-10T05:46:39.795Z,4.36
2022-12-10T05:49:07.159Z,4.39
2022-12-10T05:51:36.405Z,4.46
2022-12-10T05:54:04.541Z,4.48
2022-12-10T05:56:31.701Z,4.50
2022-12-10T05:59:01.176Z,4.53
2022-12-10T06:01:33.915Z,4.55
2022-12-10T06:04:01.572Z,4.57
2022-12-10T06:06:30.868Z,4.56
2022-12-10T06:08:58.088Z,4.49
2022-12-10T06:11:25.084Z,4.43
2022-12-10T06:13:56.023Z,4.38
2022-12-10T06:16:23.680Z,4.44
2022-12-10T06:18:50.255Z,4.42
2022-12-10T06:21:18.926Z,4.38
2022-12-10T06:23:46.070Z,4.40
2022-12-10T06:26:19.075Z,4.48
2022-12-10T06:28:46.682Z,4.46
2022-12-10T06:31:13.687Z,4.44
2022-12-10T06:33:40.157Z,4.42
2022-12-10T06:36:08.595Z,4.46
2022-12-10T06:38:36.463Z,4.48
2022-12-10T06:41:08.319Z,4.44
2022-12-10T06:43:35.292Z,4.46
2022-12-10T06:46:09.501Z,4.46
2022-12-10T06:48:36.643Z,4.45
2022-12-10T06:51:04.844Z,4.40
2022-12-10T06:53:32.794Z,4.32
2022-12-10T06:56:00.754Z,4.38
2022-12-10T06:58:29.548Z,4.44
2022-12-10T07:01:04.188Z,4.47
2022-12-10T07:03:31.866Z,4.44
2022-12-10T07:06:00.143Z,4.36
2022-12-10T07:08:26.632Z,4.33
2022-12-10T07:10:53.686Z,4.36
2022-12-10T07:13:20.390Z,4.39
2022-12-10T07:15:46.834Z,4.39
2022-12-10T07:18:13.352Z,4.36
2022-12-10T07:20:39.770Z,4.32
2022-12-10T07:23:06.224Z,4.38
2022-12-10T07:25:34.101Z,4.35
2022-12-10T07:28:00.596Z,4.38
2022-12-10T07:30:27.017Z,4.36
2022-12-10T07:32:53.411Z,4.34
2022-12-10T07:35:19.852Z,4.37
2022-12-10T07:37:46.248Z,4.43
2022-12-10T07:40:12.780Z,4.37
2022-12-10T07:42:39.208Z,4.28
2022-12-10T07:45:06.148Z,4.22
2022-12-10T07:47:35.328Z,4.21
2022-12-10T07:50:01.739Z,4.24
2022-12-10T07:52:28.135Z,4.24
2022-12-10T07:54:54.548Z,4.22
2022-12-10T07:57:20.956Z,4.24
2022-12-10T07:59:47.938Z,4.27
2022-12-10T08:02:14.335Z,4.35
2022-12-10T08:04:40.910Z,4.31
2022-12-10T08:07:08.490Z,4.26
2022-12-10T08:09:35.893Z,4.38
2022-12-10T08:12:02.306Z,4.33
2022-12-10T08:14:28.893Z,4.37
2022-12-10T08:16:55.273Z,4.45
2022-12-10T08:19:25.801Z,4.53
2022-12-10T08:21:54.874Z,4.51
2022-12-10T08:24:21.278Z,4.49
2022-12-10T08:26:47.664Z,4.54
2022-12-10T08:29:14.087Z,4.49
2022-12-10T08:31:40.569Z,4.38
2022-12-10T08:34:13.934Z,4.32
2022-12-10T08:36:40.414Z,4.39
2022-12-10T08:39:06.831Z,4.35
2022-12-10T08:41:33.336Z,4.35
2022-12-10T08:43:59.780Z,4.35
2022-12-10T08:46:27.488Z,4.37
2022-12-10T08:48:53.910Z,4.36
2022-12-10T08:51:21.020Z,4.39
2022-12-10T08:53:48.255Z,4.49
2022-12-10T08:56:16.200Z,4.50
2022-12-10T08:58:43.316Z,4.47
2022-12-10T09:01:11.868Z,4.48
2022-12-10T09:03:38.815Z,4.46
2022-12-10T09:06:12.258Z,4.44
2022-12-10T09:08:39.193Z,4.44
2022-12-10T09:11:10.666Z,4.45
2022-12-10T09:13:37.136Z,4.40
2022-12-10T09:16:04.407Z,4.40
2022-12-10T09:18:30.994Z,4.39
2022-12-10T09:20:57.958Z,4.39
2022-12-10T09:23:25.015Z,4.47
2022-12-10T09:25:51.540Z,4.48
2022-12-10T09:28:18.031Z,4.50
2022-12-10T09:30:44.463Z,4.53
2022-12-10T09:33:11.278Z,4.63
2022-12-10T09:35:41.502Z,4.61
2022-12-10T09:38:07.957Z,4.61
2022-12-10T09:40:44.488Z,4.61
2022-12-10T09:43:37.969Z,4.56
2022-12-10T09:46:24.740Z,4.64
2022-12-10T09:49:12.505Z,4.63
2022-12-10T09:51:39.157Z,4.58
2022-12-10T09:54:19.486Z,4.55
2022-12-10T09:56:46.473Z,4.65
2022-12-10T09:59:38.055Z,4.70
2022-12-10T10:02:04.542Z,4.75
2022-12-10T10:04:31.291Z,4.77
2022-12-10T10:06:58.362Z,4.65
2022-12-10T10:09:25.245Z,4.67
2022-12-10T10:11:51.913Z,4.67
2022-12-10T10:14:26.957Z,4.67
2022-12-10T10:17:00.521Z,4.73
2022-12-10T10:19:30.961Z,4.76
2022-12-10T10:21:58.752Z,4.77
2022-12-10T10:24:40.927Z,4.69
2022-12-10T10:27:16.553Z,4.68
2022-12-10T10:29:46.311Z,4.62
2022-12-10T10:32:23.419Z,4.70
2022-12-10T10:34:55.571Z,4.66
2022-12-10T10:37:31.974Z,4.74
2022-12-10T10:39:59.397Z,4.78
2022-12-10T10:42:26.090Z,4.80
2022-12-10T10:44:52.653Z,4.85
2022-12-10T10:47:34.375Z,4.85
2022-12-10T10:50:03.538Z,4.85
2022-12-10T10:52:32.029Z,4.84
2022-12-10T10:54:58.644Z,4.92
2022-12-10T10:57:30.336Z,4.98
2022-12-10T11:00:09.188Z,4.98
2022-12-10T11:02:41.637Z,5.07
2022-12-10T11:05:09.248Z,5.03
2022-12-10T11:07:39.051Z,5.03
2022-12-10T11:10:17.554Z,5.05
2022-12-10T11:12:46.402Z,5.04
2022-12-10T11:15:25.497Z,5.07
2022-12-10T11:17:55.139Z,5.09
2022-12-10T11:20:36.172Z,5.14
2022-12-10T11:23:13.853Z,5.07
2022-12-10T11:25:43.280Z,5.05
2022-12-10T11:28:16.097Z,5.09
2022-12-10T11:31:14.684Z,5.06
2022-12-10T11:34:19.591Z,5.07
2022-12-10T11:37:11.481Z,5.05
2022-12-10T11:39:37.904Z,5.12
2022-12-10T11:42:20.416Z,5.08
2022-12-10T11:45:08.723Z,5.16
2022-12-10T11:48:09.721Z,5.19
2022-12-10T11:50:43.891Z,5.19
2022-12-10T11:53:28.557Z,5.25
2022-12-10T11:56:18.079Z,5.26
2022-12-10T11:59:03.052Z,5.27
2022-12-10T12:01:45.003Z,5.34
2022-12-10T12:04:17.521Z,5.34
2022-12-10T12:07:09.008Z,5.31
2022-12-10T12:10:06.636Z,5.36
2022-12-10T12:12:56.052Z,5.27
2022-12-10T12:15:30.952Z,5.29
2022-12-10T12:18:04.226Z,5.29
2022-12-10T12:20:38.345Z,5.33
2022-12-10T12:23:30.595Z,5.37
2022-12-10T12:26:04.886Z,5.38
2022-12-10T12:28:32.611Z,5.41
2022-12-10T12:31:26.701Z,5.42
2022-12-10T12:34:02.623Z,5.38
2022-12-10T12:36:35.210Z,5.36
2022-12-10T12:39:29.985Z,5.28
2022-12-10T12:42:18.270Z,5.34
2022-12-10T12:44:44.816Z,5.39
2022-12-10T12:47:30.037Z,5.42
2022-12-10T12:49:59.701Z,5.39
2022-12-10T12:52:41.310Z,5.39
2022-12-10T12:55:18.463Z,5.47
2022-12-10T12:57:52.521Z,5.47
2022-12-10T13:00:22.809Z,5.45
2022-12-10T13:03:07.264Z,5.43
2022-12-10T13:05:37.829Z,5.46
2022-12-10T13:08:19.903Z,5.53
2022-12-10T13:10:52.499Z,5.57
2022-12-10T13:13:27.656Z,5.53
2022-12-10T13:15:55.060Z,5.50
2022-12-10T13:18:37.315Z,5.50
2022-12-10T13:21:30.515Z,5.49
2022-12-10T13:24:12.241Z,5.52
2022-12-10T13:27:02.087Z,5.62
2022-12-10T13:29:28.558Z,5.66
2022-12-10T13:32:14.155Z,5.70
2022-12-10T13:34:40.626Z,5.64
2022-12-10T13:37:18.426Z,5.63
2022-12-10T13:39:53.013Z,5.56
2022-12-10T13:42:38.077Z,5.55
2022-12-10T13:45:23.871Z,5.56
2022-12-10T13:47:56.219Z,5.48
2022-12-10T13:50:37.752Z,5.51
2022-12-10T13:53:16.460Z,5.60
2022-12-10T13:56:10.414Z,5.62
2022-12-10T13:58:52.403Z,5.58
2022-12-10T14:01:31.433Z,5.56
2022-12-10T14:04:00.599Z,5.57
2022-12-10T14:06:27.957Z,5.65
2022-12-10T14:08:58.049Z,5.68
2022-12-10T14:11:35.464Z,5.69
2022-12-10T14:14:06.648Z,5.72
2022-12-10T14:16:36.839Z,5.70
2022-12-10T14:19:12.623Z,5.69
2022-12-10T14:21:42.449Z,5.68
2022-12-10T14:24:28.271Z,5.62
2022-12-10T14:27:01.717Z,5.61
2022-12-10T14:29:29.564Z,5.62
2022-12-10T14:31:56.990Z,5.57
2022-12-10T14:34:27.812Z,5.58
2022-12-10T14:37:02.397Z,5.57
2022-12-10T14:39:32.404Z,5.54
2022-12-10T14:42:01.704Z,5.52
2022-12-10T14:44:29.023Z,5.55
2022-12-10T14:47:07.726Z,5.57
2022-12-10T14:49:43.428Z,5.57
2022-12-10T14:52:18.227Z,5.62
2022-12-10T14:54:46.041Z,5.65
2022-12-10T14:57:18.865Z,5.60
2022-12-10T14:59:51.578Z,5.63
2022-12-10T15:02:21.352Z,5.61
2022-12-10T15:04:50.037Z,5.56
2022-12-10T15:07:21.637Z,5.51
2022-12-10T15:09:49.800Z,5.49
2022-12-10T15:12:37.136Z,5.53
2022-12-10T15:15:13.200Z,5.54
2022-12-10T15:17:53.406Z,5.54
2022-12-10T15:20:22.429Z,5.46
2022-12-10T15:22:48.923Z,5.47
2022-12-10T15:25:28.472Z,5.48
2022-12-10T15:28:02.005Z,5.52
2022-12-10T15:30:39.918Z,5.53
2022-12-10T15:33:28.199Z,5.51
2022-12-10T15:35:57.688Z,5.52
2022-12-10T15:38:24.781Z,5.48
2022-12-10T15:40:51.315Z,5.47
2022-12-10T15:43:23.840Z,5.41
2022-12-10T15:45:51.224Z,5.45
2022-12-10T15:48:17.834Z,5.42
2022-12-10T15:50:46.351Z,5.37
2022-12-10T15:53:14.911Z,5.29
2022-12-10T15:55:41.517Z,5.39
2022-12-10T15:58:12.709Z,5.41
2022-12-10T16:00:44.492Z,5.45
2022-12-10T16:03:13.694Z,5.47
2022-12-10T16:05:40.450Z,5.42
2022-12-10T16:08:16.959Z,5.36
2022-12-10T16:10:44.867Z,5.29
2022-12-10T16:13:19.362Z,5.20
2022-12-10T16:16:07.983Z,5.19
2022-12-10T16:18:38.391Z,5.21
2022-12-10T16:21:06.163Z,5.22
2022-12-10T16:23:33.648Z,5.27
2022-12-10T16:26:00.784Z,5.34
2022-12-10T16:28:28.137Z,5.37
2022-12-10T16:30:59.888Z,5.35
2022-12-10T16:33:27.951Z,5.28
2022-12-10T16:35:57.012Z,5.23
2022-12-10T16:38:24.655Z,5.15
2022-12-10T16:40:51.137Z,5.16
2022-12-10T16:43:23.242Z,5.16
2022-12-10T16:45:50.908Z,5.16
2022-12-10T16:48:17.434Z,5.18
2022-12-10T16:50:45.016Z,5.21
2022-12-10T16:53:29.886Z,5.25
2022-12-10T16:55:57.545Z,5.17
2022-12-10T16:58:25.209Z,5.17
2022-12-10T17:00:53.926Z,5.18
2022-12-10T17:03:25.022Z,5.18
2022-12-10T17:05:51.931Z,5.08
2022-12-10T17:08:19.156Z,5.06
2022-12-10T17:11:05.297Z,5.07
2022-12-10T17:13:33.075Z,5.09
2022-12-10T17:15:59.765Z,5.04
2022-12-10T17:18:26.160Z,4.99
2022-12-10T17:20:52.977Z,4.88
2022-12-10T17:23:19.852Z,4.85
2022-12-10T17:25:46.707Z,4.83
2022-12-10T17:28:21.212Z,4.73
2022-12-10T17:30:49.799Z,4.67
2022-12-10T17:33:19.659Z,4.63
2022-12-10T17:35:48.282Z,4.70
2022-12-10T17:38:20.697Z,4.77
2022-12-10T17:40:47.132Z,4.77
2022-12-10T17:43:13.929Z,4.76
2022-12-10T17:45:41.900Z,4.56
2022-12-10T17:48:13.092Z,4.44
2022-12-10T17:50:39.648Z,4.44
2022-12-10T17:53:13.659Z,4.41
2022-12-10T17:55:45.156Z,4.31
2022-12-10T17:58:14.655Z,4.32
2022-12-10T18:00:41.327Z,4.28
2022-12-10T18:03:07.865Z,4.13
2022-12-10T18:05:34.420Z,4.10
2022-12-10T18:08:00.939Z,4.06
2022-12-10T18:10:30.524Z,4.14
2022-12-10T18:12:57.443Z,4.13
2022-12-10T18:15:26.088Z,4.13
2022-12-10T18:17:53.428Z,4.09
2022-12-10T18:20:24.795Z,3.92
2022-12-10T18:22:52.751Z,3.88
2022-12-10T18:25:22.597Z,3.88
2022-12-10T18:27:50.149Z,3.92
2022-12-10T18:30:18.859Z,3.90
2022-12-10T18:32:45.450Z,3.92
2022-12-10T18:35:12.306Z,3.96
2022-12-10T18:37:39.682Z,3.97
2022-12-10T18:40:09.071Z,4.03
2022-12-10T18:42:35.556Z,4.15
2022-12-10T18:45:01.955Z,4.10
2022-12-10T18:47:28.385Z,4.13
2022-12-10T18:49:54.789Z,3.99
2022-12-10T18:52:21.193Z,3.95
2022-12-10T18:54:48.013Z,3.88
2022-12-10T19:00:01.612Z,3.96
2022-12-10T19:02:28.143Z,3.83
2022-12-10T19:04:54.571Z,3.81
2022-12-10T19:07:21.011Z,3.84
2022-12-10T19:09:49.334Z,3.86
2022-12-10T19:12:15.727Z,3.90
2022-12-10T19:14:42.130Z,3.88
2022-12-10T19:17:11.031Z,3.90
2022-12-10T19:19:37.473Z,3.83
2022-12-10T19:22:04.101Z,3.86
2022-12-10T19:24:30.569Z,3.88
2022-12-10T19:26:57.039Z,3.95
2022-12-10T19:29:23.847Z,3.94
2022-12-10T19:31:50.973Z,3.88
2022-12-10T19:34:19.727Z,3.91
2022-12-10T19:36:47.093Z,3.89
2022-12-10T19:39:23.217Z,3.86
2022-12-10T19:41:51.228Z,3.80
2022-12-10T19:44:17.865Z,3.79
2022-12-10T19:46:44.672Z,3.76
2022-12-10T19:49:12.371Z,3.83
2022-12-10T19:51:38.769Z,3.79
2022-12-10T19:54:05.300Z,3.73
2022-12-10T19:56:33.522Z,3.68
2022-12-10T19:59:03.789Z,3.62
2022-12-10T20:01:30.685Z,3.53
2022-12-10T20:03:57.832Z,3.58
2022-12-10T20:06:33.256Z,3.64
2022-12-10T20:09:02.366Z,3.67
2022-12-10T20:11:29.455Z,3.60
2022-12-10T20:13:56.360Z,3.59
2022-12-10T20:16:25.674Z,3.59
2022-12-10T20:18:52.997Z,3.58
2022-12-10T20:21:19.926Z,3.62
2022-12-10T20:23:46.619Z,3.58
2022-12-10T20:26:32.817Z,3.46
2022-12-10T20:29:00.180Z,3.50
2022-12-10T20:31:27.549Z,3.44
2022-12-10T20:33:53.990Z,3.37
2022-12-10T20:36:23.949Z,3.38
2022-12-10T20:38:50.919Z,3.41
2022-12-10T20:41:19.171Z,3.43
2022-12-10T20:43:46.315Z,3.36
2022-12-10T20:46:20.292Z,3.30
2022-12-10T20:48:47.407Z,3.36
2022-12-10T20:51:14.049Z,3.45
2022-12-10T20:53:40.858Z,3.41
2022-12-10T20:56:12.840Z,3.35
2022-12-10T20:58:39.319Z,3.32
2022-12-10T21:01:06.060Z,3.31
2022-12-10T21:03:32.776Z,3.32
2022-12-10T21:06:00.549Z,3.33
2022-12-10T21:08:28.988Z,3.42
2022-12-10T21:10:56.530Z,3.51
2022-12-10T21:13:26.428Z,3.47
2022-12-10T21:15:54.578Z,3.46
2022-12-10T21:18:21.629Z,3.33
2022-12-10T21:20:48.805Z,3.30
2022-12-10T21:23:18.588Z,3.38
2022-12-10T21:25:45.197Z,3.38
2022-12-10T21:28:11.813Z,3.45
2022-12-10T21:30:39.173Z,3.51
2022-12-10T21:33:06.000Z,3.42
2022-12-10T21:35:32.506Z,3.38
2022-12-10T21:37:59.820Z,3.40
2022-12-10T21:40:26.295Z,3.43
2022-12-10T21:43:12.108Z,3.45
2022-12-10T21:45:38.578Z,3.51
2022-12-10T21:48:05.247Z,3.59
2022-12-10T21:50:32.178Z,3.66
2022-12-10T21:52:58.713Z,3.67
2022-12-10T21:55:30.249Z,3.71
2022-12-10T21:57:58.844Z,3.73
2022-12-10T22:00:25.599Z,3.77
2022-12-10T22:02:52.055Z,3.62
2022-12-10T22:05:18.537Z,3.68
2022-12-10T22:07:45.056Z,3.77
2022-12-10T22:10:12.895Z,3.79
2022-12-10T22:12:39.845Z,3.83
2022-12-10T22:15:07.570Z,3.86
2022-12-10T22:17:34.468Z,3.92
2022-12-10T22:20:01.268Z,3.96
2022-12-10T22:22:27.722Z,3.97
2022-12-10T22:24:54.217Z,3.89
2022-12-10T22:27:20.674Z,4.00
2022-12-10T22:29:47.377Z,3.97
2022-12-10T22:32:13.943Z,3.94
2022-12-10T22:34:45.128Z,3.97
2022-12-10T22:37:12.122Z,4.00
2022-12-10T22:39:38.649Z,3.95
2022-12-10T22:42:05.763Z,3.90
2022-12-10T22:44:32.176Z,3.91
2022-12-10T22:46:58.676Z,3.90
2022-12-10T22:49:25.141Z,3.85
2022-12-10T22:51:51.589Z,3.86
2022-12-10T22:54:18.221Z,3.80
2022-12-10T22:56:44.683Z,3.71
2022-12-10T22:59:12.034Z,3.75
2022-12-10T23:01:38.704Z,3.74
2022-12-10T23:04:05.169Z,3.71
2022-12-10T23:06:31.952Z,3.68
2022-12-10T23:08:58.579Z,3.67
2022-12-10T23:11:25.030Z,3.72
2022-12-10T23:13:51.836Z,3.70
2022-12-10T23:16:19.031Z,3.68
2022-12-10T23:18:49.865Z,3.66
2022-12-10T23:21:25.953Z,3.62
2022-12-10T23:23:53.475Z,3.63
2022-12-10T23:26:20.809Z,3.53
2022-12-10T23:28:48.389Z,3.46
2022-12-10T23:31:16.332Z,3.43
2022-12-10T23:33:43.962Z,3.43
2022-12-10T23:36:10.830Z,3.48
2022-12-10T23:38:37.840Z,3.52
2022-12-10T23:41:09.009Z,3.59
2022-12-10T23:43:36.191Z,3.66
2022-12-10T23:46:02.945Z,3.71
2022-12-10T23:48:30.616Z,3.70
2022-12-10T23:50:58.245Z,3.74
2022-12-10T23:53:25.229Z,3.72
2022-12-10T23:55:51.705Z,3.64
2022-12-10T23:58:18.373Z,3.62
